• Join FlightAware (Why Join?)
  • Login
  • US Flag 
01:40AM EDT


 

Airport Tracker/Info


-or-


 

Live Flight TrackerFlight Track Log ✈ NKS843 ✈ 01-Aug-2013 ✈ KORD - KMYR

Flight Track Log - Related Links

Times and Time Zones

All times are in EDT time to prevent confusion due to time zone crossing. See the NKS843 flight status page for this flight to view local times or setup timezone preferences in your user account.

Time Position Orientation Groundspeed Altitude Reporting Facility
EDT Latitude Longitude Course Direction KTS MPH feet Rate Location/Type
08:04AM 41.9620 -87.8890 222° Southwest 135 155  Level FlightAware
08:04AM 41.9450 -87.9040 213° Southwest 166 191 1,500 3,840 Climbing FlightAware
08:04AM 41.9420 -87.9040 180° South 169 194 1,600 1,500 Climbing FlightAware
08:05AM 41.9190 -87.9020 176° South 197 227 2,300 1,560 Climbing FlightAware
08:05AM 41.9100 -87.9010 175° South 205 236 2,600 2,100 Climbing FlightAware
08:05AM 41.8870 -87.8970 173° South 213 245 3,500 2,160 Climbing FlightAware
08:06AM 41.8650 -87.8940 174° South 228 262 4,200 1,800 Climbing FlightAware
08:06AM 41.8420 -87.8880 169° South 256 295 4,800 1,560 Climbing FlightAware
08:06AM 41.8260 -87.8760 151° Southeast 280 322 5,200 2,520 Climbing FlightAware
08:07AM 41.7950 -87.8530 151° Southeast 296 341 6,500 3,300 Climbing FlightAware
08:07AM 41.7820 -87.8440 153° Southeast 293 337 7,100 3,300 Climbing FlightAware
08:07AM 41.7510 -87.8210 151° Southeast 299 344 8,500 3,000 Climbing FlightAware
08:08AM 41.7260 -87.8020 150° Southeast 309 356 9,400 2,880 Climbing FlightAware
08:08AM 41.6840 -87.7690 150° Southeast 316 364 11,200 2,700 Climbing FlightAware
08:09AM 41.6360 -87.7330 151° Southeast 328 377 12,700 2,160 Climbing FlightAware
08:09AM 41.5900 -87.6970 150° Southeast 353 406 13,700 1,440 Climbing FlightAware
08:10AM 41.5400 -87.6600 151° Southeast 389 448 14,300 1,380 Climbing FlightAware
08:11AM 41.4720 -87.6080 150° Southeast 403 464 15,800 1,980 Climbing FlightAware
08:11AM 41.4000 -87.5680 157° South 400 460 17,300 2,220 Climbing FlightAware
08:12AM 41.3450 -87.5580 172° South 404 465 18,400 2,160 Climbing FlightAware
08:13AM 41.2610 -87.5440 173° South 416 479 19,800 2,100 Climbing FlightAware
08:13AM 41.2160 -87.5280 165° South 428 493 20,500 1,560 Climbing FlightAware
08:13AM 41.1570 -87.4920 155° Southeast 439 505 21,300 1,620 Climbing FlightAware
08:14AM 41.0860 -87.4510 156° South 445 512 22,400 1,680 Climbing FlightAware
08:15AM 41.0250 -87.4160 157° South 444 511 23,300 1,320 Climbing FlightAware
08:15AM 40.9710 -87.3850 157° South 453 521 23,800 960 Climbing FlightAware
08:16AM 40.9030 -87.3470 157° South 464 534 24,400 1,200 Climbing FlightAware
08:16AM 40.8180 -87.2980 156° South 472 543 25,400 1,500 Climbing FlightAware
08:17AM 40.7540 -87.2610 156° South 474 545 26,300 1,380 Climbing FlightAware
08:18AM 40.6790 -87.2190 157° South 479 551 27,000 1,020 Climbing FlightAware
08:18AM 40.6120 -87.1810 157° South 488 562 27,500 960 Climbing FlightAware
08:19AM 40.5430 -87.1420 157° South 494 568 28,100 1,140 Climbing FlightAware
08:19AM 40.4590 -87.0940 156° South 499 574 28,900 1,320 Climbing FlightAware
08:19AM 40.4410 -87.0840 157° South 500 575 29,100 720 Climbing FlightAware
08:20AM 40.3760 -87.0470 157° South 503 579 29,600 780 Climbing FlightAware
08:22AM 40.1440 -86.9170 157° South 525 604 30,900 840 Climbing FlightAware
08:22AM 40.0670 -86.8740 157° South 530 610 31,400 780 Climbing FlightAware
08:23AM 40.0190 -86.8480 157° South 534 615 31,700 480 Climbing FlightAware
08:23AM 39.9130 -86.7860 156° South 539 620 32,000 300 Climbing FlightAware
08:24AM 39.8810 -86.7640 152° Southeast 541 623 32,000  Level FlightAware
08:25AM 39.7480 -86.6390 144° Southeast 546 628 32,000  Level FlightAware
08:25AM 39.6840 -86.5580 136° Southeast 547 629 32,000  Level FlightAware
08:26AM 39.6380 -86.4860 130° Southeast 547 629 32,000 240 Level FlightAware
08:26AM 39.5870 -86.3870 124° Southeast 545 627 32,300 420 Climbing FlightAware
08:27AM 39.5370 -86.2740 120° Southeast 540 621 32,600 540 Climbing FlightAware
08:28AM 39.4930 -86.1740 120° Southeast 536 617 33,000 660 Climbing FlightAware
08:28AM 39.4500 -86.0760 120° Southeast 541 623 33,400 720 Climbing FlightAware
08:29AM 39.4060 -85.9760 120° Southeast 543 625 33,900 960 Climbing FlightAware
08:29AM 39.3610 -85.8750 120° Southeast 541 623 34,600 1,020 Climbing FlightAware
08:30AM 39.3200 -85.7820 120° Southeast 542 624 35,100 840 Climbing FlightAware
08:31AM 39.2760 -85.6840 120° Southeast 545 627 35,600 1,080 Climbing FlightAware
08:31AM 39.2290 -85.5800 120° Southeast 539 620 36,400 900 Climbing FlightAware
08:32AM 39.1890 -85.4900 120° Southeast 541 623 36,700 480 Climbing FlightAware
08:32AM 39.1450 -85.3920 120° Southeast 536 617 37,000 240 Climbing FlightAware
08:33AM 39.1030 -85.3000 120° Southeast 534 615 37,000  Level FlightAware
08:34AM 39.0560 -85.1960 120° Southeast 534 615 37,000  Level FlightAware
08:34AM 39.0040 -85.1170 130° Southeast 536 617 37,000  Level FlightAware
08:35AM 38.9410 -85.0360 135° Southeast 535 616 37,000  Level FlightAware
08:35AM 38.8790 -84.9560 135° Southeast 533 613 37,000  Level FlightAware
08:36AM 38.8190 -84.8800 135° Southeast 533 613 37,000  Level FlightAware
08:36AM 38.7530 -84.7960 135° Southeast 531 611 37,000  Level FlightAware
08:37AM 38.6980 -84.7250 135° Southeast 529 609 37,000  Level FlightAware
08:38AM 38.6190 -84.6260 136° Southeast 528 608 37,000  Level FlightAware
08:38AM 38.5620 -84.5540 135° Southeast 528 608 37,000  Level FlightAware
08:39AM 38.4980 -84.4740 136° Southeast 528 608 37,000  Level FlightAware
08:39AM 38.4490 -84.4110 135° Southeast 528 608 37,000  Level FlightAware
08:40AM 38.3610 -84.3010 136° Southeast 527 606 37,000  Level FlightAware
08:41AM 38.2770 -84.1960 136° Southeast 525 604 37,000  Level FlightAware
08:42AM 38.2280 -84.1350 136° Southeast 523 602 37,000  Level FlightAware
08:42AM 38.1730 -84.0670 136° Southeast 521 600 37,000  Level FlightAware
08:43AM 38.0600 -83.9270 136° Southeast 518 596 37,000  Level FlightAware
08:44AM 37.9970 -83.8480 135° Southeast 516 594 37,000  Level FlightAware
08:44AM 37.9410 -83.7790 136° Southeast 516 594 37,000  Level FlightAware
08:45AM 37.8890 -83.7160 136° Southeast 515 593 37,000  Level FlightAware
08:46AM 37.8100 -83.6190 136° Southeast 515 593 37,000  Level FlightAware
08:46AM 37.7510 -83.5460 136° Southeast 514 592 37,000  Level FlightAware
08:47AM 37.6850 -83.4660 136° Southeast 512 589 37,000  Level FlightAware
08:47AM 37.6170 -83.3830 136° Southeast 510 587 37,000  Level FlightAware
08:48AM 37.5993 -83.3618 136° Southeast 511 588 37,000  Level FlightAware ADS-B
08:48AM 37.5475 -83.2985 136° Southeast 509 586 37,000  Level FlightAware ADS-B
08:49AM 37.4966 -83.2369 136° Southeast 508 585 37,000  Level FlightAware ADS-B
08:49AM 37.4381 -83.1665 136° Southeast 506 582 37,000  Level FlightAware ADS-B
08:50AM 37.3871 -83.1049 136° Southeast 504 580 37,000  Level FlightAware ADS-B
08:50AM 37.3374 -83.0448 136° Southeast 501 577 37,000  Level FlightAware ADS-B
08:51AM 37.2854 -82.9827 136° Southeast 501 577 37,000  Level FlightAware ADS-B
08:51AM 37.2328 -82.9195 136° Southeast 501 577 37,000  Level FlightAware ADS-B
08:52AM 37.1798 -82.8561 136° Southeast 501 577 37,000  Level FlightAware ADS-B
08:52AM 37.1274 -82.7935 136° Southeast 502 578 37,000  Level FlightAware ADS-B
08:53AM 37.0741 -82.7301 136° Southeast 504 580 37,000  Level FlightAware ADS-B
08:53AM 37.0224 -82.6687 137° Southeast 506 582 37,000  Level FlightAware ADS-B
08:54AM 36.9696 -82.6058 136° Southeast 508 585 37,000  Level FlightAware ADS-B
08:54AM 36.9155 -82.5414 136° Southeast 509 586 37,000  Level FlightAware ADS-B
08:55AM 36.8631 -82.4796 137° Southeast 511 588 37,000  Level FlightAware ADS-B
08:55AM 36.8109 -82.4181 137° Southeast 511 588 37,000  Level FlightAware ADS-B
08:56AM 36.7444 -82.3404 137° Southeast 511 588 37,000 60 Level FlightAware ADS-B
08:57AM 36.6599 -82.2408 137° Southeast 509 586 37,100 60 Climbing FlightAware ADS-B
08:57AM 36.6048 -82.1762 137° Southeast 504 580 37,100 -120 Level FlightAware ADS-B
08:58AM 36.5532 -82.1160 137° Southeast 502 578 37,000 -120 Descending FlightAware ADS-B
08:58AM 36.5016 -82.0559 137° Southeast 499 574 37,000  Level FlightAware ADS-B
08:59AM 36.4511 -81.9970 137° Southeast 494 568 37,000 -300 Level FlightAware ADS-B
08:59AM 36.4018 -81.9397 137° Southeast 490 564 36,700 -840 Descending FlightAware ADS-B
09:00AM 36.3508 -81.8809 137° Southeast 476 548 36,200 -720 Descending FlightAware ADS-B
09:00AM 36.3031 -81.8254 137° Southeast 463 533 36,000 -960 Descending FlightAware ADS-B
09:01AM 36.2368 -81.7488 137° Southeast 463 533 35,100 -840 Descending FlightAware ADS-B
09:02AM 36.1900 -81.6950 137° Southeast 477 549 35,000 -120 Descending FlightAware
09:02AM 36.1410 -81.6390 137° Southeast 487 560 35,000  Level FlightAware
09:03AM 36.0730 -81.5610 137° Southeast 483 556 35,000  Level FlightAware
09:03AM 36.0493 -81.5335 137° Southeast 483 556 35,000  Level FlightAware ADS-B
09:04AM 35.9948 -81.4711 137° Southeast 480 552 35,000  Level FlightAware ADS-B
09:04AM 35.9430 -81.4121 137° Southeast 478 550 35,000  Level FlightAware ADS-B
09:05AM 35.8820 -81.3423 137° Southeast 476 548 35,000  Level FlightAware ADS-B
09:05AM 35.8308 -81.2840 137° Southeast 476 548 35,000  Level FlightAware ADS-B
09:06AM 35.7561 -81.1995 137° Southeast 477 549 35,000  Level FlightAware ADS-B
09:07AM 35.6820 -81.1150 137° Southeast 477 549 35,000  Level FlightAware
09:08AM 35.5770 -80.9970 137° Southeast 476 548 35,000  Level FlightAware
09:09AM 35.5010 -80.9110 137° Southeast 474 545 35,000 -360 Level FlightAware
09:09AM 35.4520 -80.8570 138° Southeast 474 545 34,600 -840 Descending FlightAware
09:10AM 35.3890 -80.7860 137° Southeast 477 549 34,100 -900 Descending FlightAware
09:11AM 35.3270 -80.7170 138° Southeast 474 545 33,500 -1,020 Descending FlightAware
09:11AM 35.2840 -80.6690 138° Southeast 476 548 33,000 -840 Descending FlightAware
09:12AM 35.2380 -80.6170 137° Southeast 476 548 32,600 -1,020 Descending FlightAware
09:12AM 35.1680 -80.5400 138° Southeast 474 545 31,900 -1,200 Descending FlightAware
09:13AM 35.0990 -80.4630 138° Southeast 473 544 31,200 -1,320 Descending FlightAware
09:13AM 35.0430 -80.4000 137° Southeast 478 550 30,200 -2,160 Descending FlightAware
09:14AM 34.9890 -80.3420 139° Southeast 476 548 28,800 -2,340 Descending FlightAware
09:15AM 34.9330 -80.2800 138° Southeast 468 539 27,600 -1,620 Descending FlightAware
09:15AM 34.8800 -80.2210 138° Southeast 473 544 27,000 -540 Descending FlightAware
09:16AM 34.8140 -80.1490 138° Southeast 475 547 27,000 -120 Level FlightAware
09:16AM 34.7550 -80.0840 138° Southeast 471 542 26,900 -1,260 Descending FlightAware
09:17AM 34.6940 -80.0170 138° Southeast 468 539 25,500 -2,040 Descending FlightAware
09:18AM 34.6410 -79.9590 138° Southeast 452 520 24,500 -1,980 Descending FlightAware
09:18AM 34.5890 -79.9030 138° Southeast 442 509 23,300 -2,160 Descending FlightAware
09:19AM 34.5960 -79.9100 321° Northwest 444 511 22,200 -2,400 Descending FlightAware
09:19AM 34.4830 -79.7880 138° Southeast 427 491 20,500 -2,280 Descending FlightAware
09:20AM 34.4053 -79.7067 138° Southeast 436 502 18,700 -2,160 Descending Jacksonville Center
09:21AM 34.3217 -79.6142 138° Southeast 428 493 16,500 -2,220 Descending Jacksonville Center
09:22AM 34.2422 -79.5292 138° Southeast 413 475 14,300 -2,220 Descending Jacksonville Center
09:23AM 34.1628 -79.4419 138° Southeast 391 450 12,100 -1,800 Descending Jacksonville Center
09:24AM 34.0878 -79.3697 141° Southeast 385 443 10,800 -1,200 Descending Jacksonville Center
09:25AM 34.0189 -79.2997 140° Southeast 356 410 9,700 -1,740 Descending Jacksonville Center
09:26AM 33.9586 -79.2322 137° Southeast 323 372 7,400 -2,280 Descending Jacksonville Center
09:27AM 33.9144 -79.1514 123° Southeast 303 349 5,200 -1,500 Descending Jacksonville Center
09:28AM 33.8806 -79.0678 116° Southeast 277 319 4,500 -1,200 Descending Jacksonville Center
09:29AM 33.8517 -79.0042 119° Southeast 245 282 2,900 -1,380 Descending Jacksonville Center
09:30AM 33.8044 -78.9661 146° Southeast 214 246 1,800 -1,140 Descending Jacksonville Center
09:32AM 33.6797 -78.9283 140° Southeast  Level Estimated
09:39AM 33.6797 -78.9283 140° Southeast  Level Estimated